Limon, CO

7:53 AM MDT on September 01, 2014 (GMT -0600)
Limon Municipal | Change Station
CLOSE
Current Station
Airport
Location: Limon,
Elevation: 5364 ft
Nearby Weather Stations

Elev 5364 ft 39.27 °N, 103.67 °W | Updated 58 minutes ago

Mostly Cloudy
Mostly Cloudy
53 °F
Feels Like 53 °F
N
0
Wind Variable Wind from North

Today
High -- | Low -- °F
--% Chance of Precip.
Yesterday
High -- | Low -- °F
Precip. -- in
6:23 AM 7:25 PM
Waxing Crescent, 41% visible
Pressure 29.92 in
Visibility 10.0 miles
Clouds Mostly Cloudy 6000 ft
Dew Point 48 °F
Humidity 83%
Rainfall 0.00 in
Snow Depth Not available.
UV 0 out of 12
Pollen 9.80 out of 12
Air Quality Not available.
Flu Activity Not available.
METAR KLIC 011255Z AUTO 00000KT 10SM BKN060 12/09 A3008 RMK AO2 SLP130 T01170089 $

More Conditions Fewer Conditions

Pressure 29.92 in
Visibility 10.0 miles
Clouds Mostly Cloudy 6000 ft
Dew Point 48 °F
Humidity 83%
Rainfall 0.00 in
Snow Depth Not available.
UV 0 out of 12
Pollen 9.80 out of 12
Air Quality Not available.
Flu Activity Not available.
METAR KLIC 011255Z AUTO 00000KT 10SM BKN060 12/09 A3008 RMK AO2 SLP130 T01170089 $

More Conditions Fewer Conditions

10-Day Weather Forecast

Almanac

Astronomy

Sep. 01, 2014 Rise Set
Actual Time 6:23 AM MDT 7:25 PM MDT
Civil Twilight 5:55 AM MDT 7:52 PM MDT
Nautical Twilight 5:23 AM MDT 8:25 PM MDT
Astronomical Twilight 4:49 AM MDT 8:59 PM MDT
Moon 1:08 PM MDT 11:30 PM MDT
Length of Visible Light 13h 56m
Length of Day
13h 02m
Tomorrow will be 2m 27s shorter.
Waxing Crescent, 41% of the Moon is Illuminated
Today
Waxing Crescent
Sep 2
First Quarter
Sep 8
Full
Sep 15
Last Quarter
Sep 24
New

Today's Extremes

State Highs State Lows

Community

WunderPhotos

Upload Photos

1,749,222 photos uploaded!

Nearby

Snow Depth

Station Depth Elevation
Echo Lake 0 in 10600 ft
Niwot 1 in 9910 ft
University Camp 0 in 10300 ft
Jackwhacker Gulch 0 in 10960 ft
Berthoud Summit 0 in 11300 ft

Earthquake Activity

City Distance Mag. Time & Date
No recent earthquake activity has been reported nearby.
Minimum magnitude displayed is 2.5.

Coastal Water Temperatures

Place Temperature
No Stations Reporting

Nearby Weather Stations